createdAt,value
2022-09-12T00:02:03.362Z,13.43
2022-09-12T00:04:30.432Z,13.39
2022-09-12T00:06:57.960Z,13.31
2022-09-12T00:09:24.825Z,13.26
2022-09-12T00:11:51.738Z,13.27
2022-09-12T00:15:03.893Z,13.22
2022-09-12T00:17:37.203Z,13.23
2022-09-12T00:20:09.410Z,13.24
2022-09-12T00:22:36.707Z,13.25
2022-09-12T00:25:06.461Z,13.22
2022-09-12T00:27:34.731Z,13.23
2022-09-12T00:34:01.010Z,13.27
2022-09-12T00:36:29.382Z,13.31
2022-09-12T00:38:56.485Z,13.34
2022-09-12T00:41:37.457Z,13.38
2022-09-12T00:44:24.314Z,13.39
2022-09-12T00:47:07.760Z,13.40
2022-09-12T00:50:00.280Z,13.44
2022-09-12T00:52:33.580Z,13.45
2022-09-12T00:55:17.969Z,13.48
2022-09-12T00:58:21.766Z,13.50
2022-09-12T01:00:48.726Z,13.50
2022-09-12T01:03:19.519Z,13.46
2022-09-12T01:06:15.741Z,13.45
2022-09-12T01:08:43.894Z,13.37
2022-09-12T01:11:13.316Z,13.36
2022-09-12T01:13:40.393Z,13.40
2022-09-12T01:16:08.394Z,13.40
2022-09-12T01:18:35.306Z,13.44
2022-09-12T01:21:26.165Z,13.44
2022-09-12T01:24:26.426Z,13.40
2022-09-12T01:27:29.351Z,13.41
2022-09-12T01:30:05.145Z,13.36
2022-09-12T01:32:37.660Z,13.38
2022-09-12T01:35:07.926Z,13.42
2022-09-12T01:37:45.920Z,13.44
2022-09-12T01:40:24.044Z,13.40
2022-09-12T01:43:10.010Z,13.36
2022-09-12T01:45:44.149Z,13.33
2022-09-12T01:48:24.516Z,13.30
2022-09-12T01:50:58.041Z,13.24
2022-09-12T01:53:29.938Z,13.22
2022-09-12T01:56:09.517Z,13.25
2022-09-12T01:58:51.242Z,13.28
2022-09-12T02:01:26.854Z,13.24
2022-09-12T02:04:21.006Z,13.20
2022-09-12T02:07:22.011Z,13.23
2022-09-12T02:10:02.256Z,13.24
2022-09-12T02:12:38.235Z,13.26
2022-09-12T02:15:08.878Z,13.22
2022-09-12T02:17:45.877Z,13.28
2022-09-12T02:20:48.228Z,13.27
2022-09-12T02:23:23.035Z,13.26
2022-09-12T02:25:54.850Z,13.23
2022-09-12T02:28:34.799Z,13.21
2022-09-12T02:31:08.528Z,13.25
2022-09-12T02:33:49.017Z,13.26
2022-09-12T02:36:25.862Z,13.26
2022-09-12T02:38:53.657Z,13.25
2022-09-12T02:41:21.326Z,13.26
2022-09-12T02:43:50.458Z,13.22
2022-09-12T02:46:33.558Z,13.26
2022-09-12T02:49:00.435Z,13.22
2022-09-12T02:51:27.550Z,13.24
2022-09-12T02:53:54.416Z,13.24
2022-09-12T02:56:27.677Z,13.28
2022-09-12T02:59:06.036Z,13.30
2022-09-12T03:01:35.926Z,13.30
2022-09-12T03:04:33.548Z,13.33
2022-09-12T03:07:19.113Z,13.28
2022-09-12T03:09:49.359Z,13.32
2022-09-12T03:12:28.185Z,13.31
2022-09-12T03:15:10.982Z,13.35
2022-09-12T03:18:05.509Z,13.27
2022-09-12T03:21:16.882Z,13.25
2022-09-12T03:23:51.510Z,13.23
2022-09-12T03:26:46.263Z,13.27
2022-09-12T03:29:15.243Z,13.30
2022-09-12T03:31:51.377Z,13.24
2022-09-12T03:34:20.855Z,13.21
2022-09-12T03:36:48.111Z,13.25
2022-09-12T03:39:15.471Z,13.29
2022-09-12T03:41:42.660Z,13.30
2022-09-12T03:44:09.663Z,13.32
2022-09-12T03:46:36.765Z,13.27
2022-09-12T03:49:07.621Z,13.27
2022-09-12T03:51:35.497Z,13.28
2022-09-12T03:54:02.230Z,13.28
2022-09-12T03:56:32.851Z,13.30
2022-09-12T03:59:02.658Z,13.38
2022-09-12T04:01:29.477Z,13.37
2022-09-12T04:03:56.893Z,13.38
2022-09-12T04:06:23.774Z,13.41
2022-09-12T04:08:53.166Z,13.42
2022-09-12T04:11:33.639Z,13.44
2022-09-12T04:14:02.600Z,13.39
2022-09-12T04:16:29.709Z,13.39
2022-09-12T04:18:56.356Z,13.39
2022-09-12T04:21:23.273Z,13.42
2022-09-12T04:23:50.394Z,13.43
2022-09-12T04:26:20.942Z,13.40
2022-09-12T04:28:48.766Z,13.43
2022-09-12T04:31:22.822Z,13.47
2022-09-12T04:34:00.925Z,13.49
2022-09-12T04:36:29.040Z,13.53
2022-09-12T04:38:56.272Z,13.55
2022-09-12T04:41:27.826Z,13.55
2022-09-12T04:43:59.172Z,13.55
2022-09-12T04:46:38.552Z,13.59
2022-09-12T04:49:08.803Z,13.63
2022-09-12T04:51:42.059Z,13.61
2022-09-12T04:54:13.714Z,13.61
2022-09-12T04:56:44.178Z,13.68
2022-09-12T04:59:12.212Z,13.76
2022-09-12T05:01:39.443Z,13.77
2022-09-12T05:04:06.307Z,13.78
2022-09-12T05:06:36.273Z,13.82
2022-09-12T05:09:05.447Z,13.81
2022-09-12T05:12:02.656Z,13.77
2022-09-12T05:14:28.324Z,13.81
2022-09-12T05:17:00.492Z,13.84
2022-09-12T05:19:28.275Z,13.93
2022-09-12T05:21:55.179Z,13.95
2022-09-12T05:24:23.086Z,13.90
2022-09-12T05:26:53.693Z,13.82
2022-09-12T05:29:22.303Z,13.86
2022-09-12T05:31:58.570Z,13.82
2022-09-12T05:34:25.285Z,13.80
2022-09-12T05:36:52.178Z,13.76
2022-09-12T05:39:22.893Z,13.73
2022-09-12T05:42:32.508Z,13.78
2022-09-12T05:45:01.738Z,13.86
2022-09-12T05:47:28.440Z,13.85
2022-09-12T05:49:55.416Z,13.91
2022-09-12T05:52:22.125Z,13.96
2022-09-12T05:54:48.894Z,14.02
2022-09-12T05:57:15.591Z,14.08
2022-09-12T05:59:43.385Z,14.11
2022-09-12T06:02:11.244Z,14.05
2022-09-12T06:04:41.066Z,13.99
2022-09-12T06:07:07.785Z,13.99
2022-09-12T06:09:34.566Z,14.05
2022-09-12T06:12:04.055Z,14.03
2022-09-12T06:14:31.104Z,14.13
2022-09-12T06:16:57.982Z,14.20
2022-09-12T06:19:25.605Z,14.29
2022-09-12T06:21:54.672Z,14.31
2022-09-12T06:24:22.472Z,14.35
2022-09-12T06:26:52.968Z,14.39
2022-09-12T06:29:20.358Z,14.46
2022-09-12T06:31:56.316Z,14.55
2022-09-12T06:34:22.992Z,14.60
2022-09-12T06:36:53.216Z,14.63
2022-09-12T06:39:21.843Z,14.58
2022-09-12T06:41:50.697Z,14.65
2022-09-12T06:44:20.481Z,14.75
2022-09-12T06:46:47.542Z,14.76
2022-09-12T06:49:14.878Z,14.77
2022-09-12T06:51:42.722Z,14.89
2022-09-12T06:54:12.160Z,14.92
2022-09-12T06:56:39.008Z,14.99
2022-09-12T06:59:05.680Z,14.92
2022-09-12T07:01:33.064Z,15.03
2022-09-12T07:04:02.575Z,14.91
2022-09-12T07:06:32.174Z,15.16
2022-09-12T07:09:00.566Z,15.20
2022-09-12T07:11:34.099Z,15.34
2022-09-12T07:14:32.594Z,15.38
2022-09-12T07:16:59.220Z,15.28
2022-09-12T07:19:28.656Z,15.15
2022-09-12T07:21:58.549Z,15.04
2022-09-12T07:24:28.422Z,15.22
2022-09-12T07:26:55.044Z,15.03
2022-09-12T07:29:38.031Z,14.92
2022-09-12T07:32:06.081Z,15.03
2022-09-12T07:34:34.653Z,15.37
2022-09-12T07:37:01.364Z,15.51
2022-09-12T07:39:36.912Z,15.69
2022-09-12T07:42:06.252Z,15.64
2022-09-12T07:44:33.187Z,15.57
2022-09-12T07:47:06.270Z,15.55
2022-09-12T07:49:33.147Z,15.60
2022-09-12T07:52:00.243Z,15.35
2022-09-12T07:54:27.885Z,15.53
2022-09-12T07:56:55.003Z,15.56
2022-09-12T07:59:48.813Z,15.33
2022-09-12T08:02:22.909Z,15.59
2022-09-12T08:04:49.629Z,15.65
2022-09-12T08:07:18.627Z,15.69
2022-09-12T08:09:46.524Z,15.70
2022-09-12T08:14:53.905Z,15.62
2022-09-12T08:17:21.351Z,15.47
2022-09-12T08:19:48.383Z,15.48
2022-09-12T08:22:15.965Z,15.64
2022-09-12T08:24:46.068Z,15.38
2022-09-12T08:27:12.962Z,15.70
2022-09-12T08:29:39.638Z,15.83
2022-09-12T08:32:06.783Z,15.86
2022-09-12T08:34:33.748Z,15.80
2022-09-12T08:37:00.439Z,15.86
2022-09-12T08:39:27.136Z,15.73
2022-09-12T08:42:05.808Z,15.58
2022-09-12T08:45:01.719Z,15.41
2022-09-12T08:47:48.491Z,15.42
2022-09-12T08:50:21.317Z,15.52
2022-09-12T08:53:11.277Z,15.48
2022-09-12T08:55:40.717Z,15.44
2022-09-12T08:58:39.290Z,15.50
2022-09-12T09:02:07.490Z,15.61
2022-09-12T09:04:37.481Z,15.64
2022-09-12T09:07:41.373Z,15.74
2022-09-12T09:10:38.270Z,15.82
2022-09-12T09:13:36.028Z,15.91
2022-09-12T09:16:30.744Z,15.95
2022-09-12T09:19:05.564Z,16.02
2022-09-12T09:21:42.787Z,16.04
2022-09-12T09:24:14.386Z,16.00
2022-09-12T09:26:48.795Z,16.03
2022-09-12T09:29:18.034Z,16.16
2022-09-12T09:31:52.203Z,16.16
2022-09-12T09:34:21.594Z,16.23
2022-09-12T09:37:03.209Z,16.27
2022-09-12T09:39:51.497Z,16.22
2022-09-12T09:42:26.948Z,16.27
2022-09-12T09:44:56.845Z,16.32
2022-09-12T09:47:23.534Z,16.36
2022-09-12T09:49:50.167Z,16.29
2022-09-12T09:52:24.351Z,16.47
2022-09-12T09:54:57.890Z,16.46
2022-09-12T09:57:37.181Z,16.54
2022-09-12T10:00:22.148Z,16.55
2022-09-12T10:03:27.055Z,16.74
2022-09-12T10:05:57.373Z,16.79
2022-09-12T10:08:24.163Z,16.63
2022-09-12T10:10:58.794Z,16.67
2022-09-12T10:13:33.146Z,16.94
2022-09-12T10:16:03.592Z,16.99
2022-09-12T10:18:40.710Z,16.89
2022-09-12T10:21:22.575Z,16.92
2022-09-12T10:24:00.192Z,17.00
2022-09-12T10:26:32.563Z,17.02
2022-09-12T10:29:05.044Z,17.08
2022-09-12T10:31:49.945Z,16.92
2022-09-12T10:34:25.481Z,16.87
2022-09-12T10:37:01.619Z,16.89
2022-09-12T10:39:28.686Z,17.05
2022-09-12T10:41:55.514Z,17.12
2022-09-12T10:44:31.069Z,17.09
2022-09-12T10:46:59.466Z,17.16
2022-09-12T10:49:29.646Z,17.31
2022-09-12T10:51:59.725Z,17.46
2022-09-12T10:54:28.530Z,17.47
2022-09-12T10:57:01.261Z,17.60
2022-09-12T10:59:46.151Z,17.70
2022-09-12T11:03:05.284Z,17.86
2022-09-12T11:05:37.495Z,18.05
2022-09-12T11:08:48.055Z,18.37
2022-09-12T11:11:17.365Z,18.35
2022-09-12T11:13:53.016Z,18.30
2022-09-12T11:16:34.626Z,18.04
2022-09-12T11:19:34.226Z,18.02
2022-09-12T11:22:01.102Z,18.09
2022-09-12T11:24:37.757Z,18.33
2022-09-12T11:27:19.732Z,18.30
2022-09-12T11:29:54.798Z,18.32
2022-09-12T11:32:34.285Z,18.13
2022-09-12T11:35:00.851Z,17.96
2022-09-12T11:37:27.939Z,17.94
2022-09-12T11:39:56.825Z,17.74
2022-09-12T11:42:28.550Z,17.80
2022-09-12T11:45:04.850Z,17.88
2022-09-12T11:47:34.947Z,17.92
2022-09-12T11:50:09.144Z,18.03
2022-09-12T11:52:42.680Z,18.18
2022-09-12T11:55:18.586Z,18.27
2022-09-12T11:57:51.932Z,18.42
2022-09-12T12:00:20.308Z,18.46
2022-09-12T12:03:04.773Z,18.52
2022-09-12T12:05:41.176Z,18.47
2022-09-12T12:08:08.674Z,18.49
2022-09-12T12:10:41.826Z,18.38
2022-09-12T12:13:39.998Z,18.28
2022-09-12T12:16:24.945Z,18.38
2022-09-12T12:19:06.385Z,18.01
2022-09-12T12:21:40.303Z,18.05
2022-09-12T12:24:10.174Z,18.19
2022-09-12T12:26:39.834Z,18.34
2022-09-12T12:29:18.514Z,18.38
2022-09-12T12:32:03.549Z,18.11
2022-09-12T12:34:37.920Z,18.14
2022-09-12T12:37:19.753Z,17.35
2022-09-12T12:39:54.037Z,17.36
2022-09-12T12:42:33.581Z,17.24
2022-09-12T12:45:09.182Z,17.43
2022-09-12T12:47:39.395Z,17.85
2022-09-12T12:50:16.494Z,17.69
2022-09-12T12:53:05.810Z,17.44
2022-09-12T12:55:39.061Z,17.48
2022-09-12T12:58:08.805Z,17.86
2022-09-12T13:00:39.798Z,17.91
2022-09-12T13:03:09.527Z,18.02
2022-09-12T13:05:40.356Z,18.26
2022-09-12T13:08:10.949Z,18.19
2022-09-12T13:10:38.677Z,18.44
2022-09-12T13:13:08.771Z,18.65
2022-09-12T13:15:38.203Z,19.26
2022-09-12T13:18:13.282Z,19.69
2022-09-12T13:21:21.802Z,19.51
2022-09-12T13:24:16.115Z,19.87
2022-09-12T13:26:46.981Z,19.59
2022-09-12T13:29:19.226Z,19.24
2022-09-12T13:31:52.102Z,19.58
2022-09-12T13:34:24.612Z,19.06
2022-09-12T13:37:11.481Z,18.92
2022-09-12T13:40:39.644Z,19.45
2022-09-12T13:43:23.390Z,19.95
2022-09-12T13:45:51.555Z,20.04
2022-09-12T13:48:25.465Z,20.53
2022-09-12T13:50:53.595Z,20.44
2022-09-12T13:53:28.426Z,19.98
2022-09-12T13:55:59.307Z,20.40
2022-09-12T13:58:30.991Z,19.48
2022-09-12T14:01:20.572Z,19.18
2022-09-12T14:04:14.742Z,20.09
2022-09-12T14:07:00.177Z,20.28
2022-09-12T14:09:34.827Z,19.39
2022-09-12T14:12:19.254Z,20.40
2022-09-12T14:14:50.153Z,20.96
2022-09-12T14:17:19.804Z,20.96
2022-09-12T14:19:50.118Z,20.55
2022-09-12T14:22:19.713Z,20.33
2022-09-12T14:24:50.606Z,21.09
2022-09-12T14:27:26.246Z,21.12
2022-09-12T14:30:02.456Z,20.84
2022-09-12T14:32:29.440Z,21.29
2022-09-12T14:35:15.511Z,21.30
2022-09-12T14:37:52.441Z,20.28
2022-09-12T14:40:22.390Z,20.37
2022-09-12T14:42:59.311Z,20.51
2022-09-12T14:45:31.782Z,20.47
2022-09-12T14:48:00.799Z,20.46
2022-09-12T14:50:35.406Z,21.05
2022-09-12T14:53:12.056Z,21.40
2022-09-12T14:58:45.211Z,22.58
2022-09-12T15:01:16.171Z,23.42
2022-09-12T15:03:49.697Z,21.71
2022-09-12T15:06:44.492Z,22.12
2022-09-12T15:09:17.235Z,22.32
2022-09-12T15:11:46.654Z,23.12
2022-09-12T15:14:14.526Z,23.67
2022-09-12T15:16:44.871Z,24.09
2022-09-12T15:24:43.509Z,24.33
2022-09-12T15:27:35.547Z,24.34
2022-09-12T15:30:16.112Z,24.78
2022-09-12T15:35:42.687Z,25.39
2022-09-12T15:39:05.394Z,25.36
2022-09-12T15:50:00.943Z,24.26
2022-09-12T15:52:30.173Z,24.12
2022-09-12T15:55:18.524Z,23.68
2022-09-12T15:57:46.638Z,23.86
2022-09-12T16:00:24.800Z,24.22
2022-09-12T16:05:41.556Z,23.66
2022-09-12T16:08:18.025Z,21.85
2022-09-12T16:10:47.917Z,22.89
2022-09-12T16:13:14.583Z,22.39
2022-09-12T16:15:41.708Z,19.94
2022-09-12T16:18:08.323Z,18.57
2022-09-12T16:20:35.329Z,17.97
2022-09-12T16:23:02.157Z,17.76
2022-09-12T16:25:29.322Z,17.60
2022-09-12T16:27:56.182Z,17.49
2022-09-12T16:30:23.206Z,17.48
2022-09-12T16:32:51.814Z,17.16
2022-09-12T16:35:18.826Z,16.93
2022-09-12T16:37:54.377Z,16.83
2022-09-12T16:40:24.723Z,16.77
2022-09-12T16:42:51.345Z,16.56
2022-09-12T16:45:18.131Z,16.38
2022-09-12T16:51:33.108Z,16.35
2022-09-12T16:54:19.019Z,16.32
2022-09-12T16:56:50.018Z,16.16
2022-09-12T16:59:32.818Z,16.40
2022-09-12T17:02:12.217Z,16.31
2022-09-12T17:04:55.593Z,16.27
2022-09-12T17:07:23.292Z,16.24
2022-09-12T17:10:09.713Z,16.19
2022-09-12T17:12:46.337Z,16.00
2022-09-12T17:18:57.782Z,15.99
2022-09-12T17:21:24.797Z,16.07
2022-09-12T17:23:51.545Z,16.09
2022-09-12T17:26:18.467Z,16.06
2022-09-12T17:28:45.099Z,16.03
2022-09-12T17:31:13.921Z,16.02
2022-09-12T17:33:41.839Z,16.18
2022-09-12T17:36:13.792Z,16.09
2022-09-12T17:38:55.075Z,16.04
2022-09-12T17:41:59.127Z,16.01
2022-09-12T17:44:39.559Z,16.02
2022-09-12T17:47:14.618Z,15.97
2022-09-12T17:49:41.748Z,15.99
2022-09-12T17:52:21.566Z,15.96
2022-09-12T17:54:55.186Z,15.89
2022-09-12T17:57:50.804Z,15.89
2022-09-12T18:00:18.307Z,15.77
2022-09-12T18:03:30.008Z,15.66
2022-09-12T18:06:03.770Z,15.68
2022-09-12T18:08:37.305Z,15.60
2022-09-12T18:11:12.599Z,15.45
2022-09-12T18:13:43.888Z,15.27
2022-09-12T18:16:12.782Z,15.28
2022-09-12T18:18:39.615Z,15.28
2022-09-12T18:21:12.945Z,15.22
2022-09-12T18:23:53.482Z,15.11
2022-09-12T18:26:36.644Z,14.90
2022-09-12T18:29:12.322Z,14.68
2022-09-12T18:31:39.803Z,14.41
2022-09-12T18:34:19.126Z,14.19
2022-09-12T18:36:56.316Z,14.13
2022-09-12T18:39:28.070Z,13.99
2022-09-12T18:41:55.385Z,13.93
2022-09-12T18:47:26.077Z,13.86
2022-09-12T18:52:38.840Z,13.46
2022-09-12T18:55:08.503Z,13.37
2022-09-12T18:57:35.931Z,13.30
2022-09-12T19:00:12.468Z,13.18
2022-09-12T19:05:20.391Z,13.10
2022-09-12T19:07:47.365Z,13.14
2022-09-12T19:10:16.194Z,13.20
2022-09-12T19:12:43.431Z,13.29
2022-09-12T19:15:22.365Z,13.17
2022-09-12T19:17:50.144Z,13.12
2022-09-12T19:20:17.333Z,13.21
2022-09-12T19:22:45.197Z,13.24
2022-09-12T19:25:14.163Z,13.24
2022-09-12T19:27:47.666Z,13.28
2022-09-12T19:33:09.074Z,13.23
2022-09-12T19:38:20.082Z,13.23
2022-09-12T19:40:58.693Z,13.10
2022-09-12T19:43:25.721Z,13.13
2022-09-12T19:45:53.226Z,13.15
2022-09-12T19:51:14.627Z,13.13
2022-09-12T19:53:42.474Z,13.20
2022-09-12T19:56:15.297Z,13.24
2022-09-12T19:58:44.724Z,13.07
2022-09-12T20:01:25.095Z,12.95
2022-09-12T20:03:54.636Z,13.03
2022-09-12T20:06:27.673Z,12.94
2022-09-12T20:08:59.163Z,12.97
2022-09-12T20:11:38.234Z,12.98
2022-09-12T20:14:10.686Z,12.97
2022-09-12T20:16:48.940Z,12.93
2022-09-12T20:19:43.250Z,12.94
2022-09-12T20:22:22.967Z,13.04
2022-09-12T20:24:50.545Z,13.08
2022-09-12T20:27:19.934Z,13.14
2022-09-12T20:29:48.444Z,13.07
2022-09-12T20:32:26.254Z,12.92
2022-09-12T20:34:53.997Z,12.89
2022-09-12T20:37:34.503Z,12.96
2022-09-12T20:40:07.092Z,12.90
2022-09-12T20:42:34.854Z,12.92
2022-09-12T20:45:04.190Z,12.90
2022-09-12T20:47:31.806Z,12.99
2022-09-12T20:50:14.189Z,12.98
2022-09-12T20:52:46.927Z,12.91
2022-09-12T20:57:59.461Z,12.84
2022-09-12T21:00:30.548Z,12.75
2022-09-12T21:02:57.792Z,12.74
2022-09-12T21:05:42.458Z,12.74
2022-09-12T21:08:14.396Z,12.71
2022-09-12T21:10:44.806Z,12.65
2022-09-12T21:13:15.603Z,12.63
2022-09-12T21:15:47.374Z,12.53
2022-09-12T21:18:15.911Z,12.51
2022-09-12T21:20:51.458Z,12.47
2022-09-12T21:26:00.918Z,12.44
2022-09-12T21:28:36.681Z,12.55
2022-09-12T21:31:04.739Z,12.56
2022-09-12T21:33:36.731Z,12.54
2022-09-12T21:36:07.293Z,12.53
2022-09-12T21:38:37.562Z,12.41
2022-09-12T21:41:16.435Z,12.41
2022-09-12T21:43:46.496Z,12.39
2022-09-12T21:49:13.475Z,12.39
2022-09-12T21:51:41.360Z,12.37
2022-09-12T21:54:11.213Z,12.30
2022-09-12T21:56:43.708Z,12.31
2022-09-12T21:59:10.476Z,12.26
2022-09-12T22:01:38.540Z,12.34
2022-09-12T22:04:06.824Z,12.25
2022-09-12T22:06:35.092Z,12.20
2022-09-12T22:09:01.841Z,12.19
2022-09-12T22:11:30.925Z,12.11
2022-09-12T22:14:00.233Z,12.12
2022-09-12T22:16:27.137Z,12.12
2022-09-12T22:18:56.365Z,12.08
2022-09-12T22:21:34.009Z,12.05
2022-09-12T22:27:08.249Z,12.07
2022-09-12T22:29:36.312Z,12.09
2022-09-12T22:32:05.631Z,12.13
2022-09-12T22:34:32.351Z,12.10
2022-09-12T22:37:04.305Z,12.06
2022-09-12T22:39:31.034Z,12.05
2022-09-12T22:44:51.989Z,12.05
2022-09-12T22:47:29.370Z,12.05
2022-09-12T22:49:56.446Z,12.06
2022-09-12T22:52:25.025Z,12.06
2022-09-12T22:54:52.149Z,12.06
2022-09-12T22:57:23.969Z,12.04
2022-09-12T22:59:50.941Z,11.97
2022-09-12T23:02:17.740Z,11.91
2022-09-12T23:04:46.898Z,11.90
2022-09-12T23:07:13.698Z,11.90
2022-09-12T23:09:43.600Z,11.88
2022-09-12T23:12:14.206Z,11.77
2022-09-12T23:14:41.070Z,11.78
2022-09-12T23:17:18.923Z,11.72
2022-09-12T23:19:47.679Z,11.67
2022-09-12T23:25:19.574Z,11.62
2022-09-12T23:27:53.981Z,11.61
2022-09-12T23:30:25.937Z,11.52
2022-09-12T23:32:52.627Z,11.39
2022-09-12T23:35:20.022Z,11.31
2022-09-12T23:37:52.803Z,11.24
2022-09-12T23:40:22.380Z,11.18
2022-09-12T23:49:53.100Z,11.01
2022-09-12T23:52:20.874Z,10.99
2022-09-12T23:54:51.055Z,10.98
2022-09-12T23:57:23.688Z,10.96
2022-09-12T23:59:54.513Z,10.85
